createdAt,value
2022-08-07T00:02:36.475Z,1.20
2022-08-07T00:04:56.279Z,1.25
2022-08-07T00:07:27.305Z,1.35
2022-08-07T00:10:18.793Z,1.30
2022-08-07T00:12:59.866Z,1.33
2022-08-07T00:15:37.891Z,1.25
2022-08-07T00:18:24.357Z,1.20
2022-08-07T00:20:57.339Z,1.25
2022-08-07T00:23:30.204Z,1.00
2022-08-07T00:26:00.321Z,1.00
2022-08-07T00:28:33.551Z,1.30
2022-08-07T00:31:12.296Z,1.20
2022-08-07T00:33:40.608Z,1.33
2022-08-07T00:36:08.968Z,1.63
2022-08-07T00:38:39.000Z,1.20
2022-08-07T00:41:25.213Z,1.33
2022-08-07T00:44:00.228Z,1.10
2022-08-07T00:46:30.998Z,1.50
2022-08-07T00:51:57.141Z,1.30
2022-08-07T00:54:19.715Z,1.23
2022-08-07T00:56:49.905Z,1.40
2022-08-07T00:59:18.022Z,1.38
2022-08-07T01:02:00.051Z,1.67
2022-08-07T01:04:30.399Z,1.27
2022-08-07T01:10:05.889Z,1.50
2022-08-07T01:12:29.902Z,1.40
2022-08-07T01:15:00.976Z,1.50
2022-08-07T01:17:30.189Z,1.20
2022-08-07T01:20:18.214Z,1.73
2022-08-07T01:22:54.203Z,1.60
2022-08-07T01:25:54.026Z,1.52
2022-08-07T01:28:16.150Z,1.70
2022-08-07T01:30:51.275Z,1.45
2022-08-07T01:33:24.799Z,1.55
2022-08-07T01:36:09.949Z,1.52
2022-08-07T01:38:38.468Z,2.05
2022-08-07T01:41:06.526Z,1.50
2022-08-07T01:43:38.203Z,1.58
2022-08-07T01:46:08.345Z,2.00
2022-08-07T01:48:54.607Z,1.50
2022-08-07T01:52:02.231Z,1.60
2022-08-07T01:54:33.074Z,1.50
2022-08-07T01:57:08.250Z,1.33
2022-08-07T01:59:58.098Z,1.42
2022-08-07T02:03:05.598Z,1.45
2022-08-07T02:05:47.907Z,1.48
2022-08-07T02:08:24.679Z,2.03
2022-08-07T02:10:55.056Z,1.67
2022-08-07T02:13:56.602Z,1.30
2022-08-07T02:16:11.872Z,1.52
2022-08-07T02:18:46.941Z,1.55
2022-08-07T02:21:22.441Z,1.90
2022-08-07T02:26:54.201Z,1.40
2022-08-07T02:29:22.202Z,1.50
2022-08-07T02:31:52.041Z,1.48
2022-08-07T02:34:22.323Z,1.30
2022-08-07T02:36:51.723Z,1.73
2022-08-07T02:39:42.951Z,1.17
2022-08-07T02:42:10.093Z,1.42
2022-08-07T02:44:53.775Z,1.33
2022-08-07T02:47:26.112Z,1.35
2022-08-07T02:50:00.172Z,1.52
2022-08-07T02:52:31.179Z,1.83
2022-08-07T02:55:02.660Z,1.63
2022-08-07T02:57:34.907Z,1.90
2022-08-07T03:00:05.117Z,1.10
2022-08-07T03:02:41.890Z,1.35
2022-08-07T03:05:23.111Z,1.60
2022-08-07T03:08:07.020Z,1.55
2022-08-07T03:10:41.088Z,1.40
2022-08-07T03:13:15.414Z,1.33
2022-08-07T03:16:00.957Z,1.77
2022-08-07T03:18:34.965Z,1.90
2022-08-07T03:21:04.973Z,1.60
2022-08-07T03:24:20.625Z,1.85
2022-08-07T03:26:33.918Z,2.10
2022-08-07T03:29:02.821Z,1.83
2022-08-07T03:31:42.528Z,1.50
2022-08-07T03:34:18.591Z,2.17
2022-08-07T03:36:51.736Z,1.90
2022-08-07T03:42:24.035Z,2.00
2022-08-07T03:44:58.068Z,1.70
2022-08-07T03:47:28.063Z,1.90
2022-08-07T03:49:57.339Z,1.60
2022-08-07T03:52:27.271Z,1.73
2022-08-07T03:55:06.159Z,1.50
2022-08-07T03:59:06.670Z,1.98
2022-08-07T04:00:35.636Z,1.65
2022-08-07T04:03:05.248Z,1.55
2022-08-07T04:05:40.292Z,1.52
2022-08-07T04:08:10.976Z,1.65
2022-08-07T04:10:42.314Z,1.33
2022-08-07T04:13:15.047Z,1.48
2022-08-07T04:15:43.295Z,1.50
2022-08-07T04:18:58.353Z,1.45
2022-08-07T04:21:01.377Z,1.30
2022-08-07T04:23:43.522Z,1.38
2022-08-07T04:26:33.342Z,1.52
2022-08-07T04:29:19.167Z,1.40
2022-08-07T04:32:03.061Z,1.60
2022-08-07T04:34:40.161Z,1.27
2022-08-07T04:37:08.135Z,1.30
2022-08-07T04:39:49.974Z,1.42
2022-08-07T04:42:17.565Z,1.20
2022-08-07T04:44:54.528Z,1.42
2022-08-07T04:48:01.198Z,1.50
2022-08-07T04:50:57.559Z,1.15
2022-08-07T04:54:01.394Z,1.17
2022-08-07T04:58:16.043Z,1.20
2022-08-07T05:00:11.603Z,1.38
2022-08-07T05:02:23.933Z,1.30
2022-08-07T05:05:51.891Z,1.40
2022-08-07T05:08:02.068Z,1.23
2022-08-07T05:10:33.460Z,1.40
2022-08-07T05:14:52.563Z,1.50
2022-08-07T05:16:27.068Z,1.10
2022-08-07T05:18:56.030Z,1.27
2022-08-07T05:21:25.385Z,1.00
2022-08-07T05:24:15.507Z,1.30
2022-08-07T05:26:47.173Z,1.10
2022-08-07T05:29:16.475Z,1.20
2022-08-07T05:31:51.178Z,1.02
2022-08-07T05:34:21.061Z,1.10
2022-08-07T05:36:54.374Z,1.00
2022-08-07T05:40:14.130Z,1.15
2022-08-07T05:42:12.328Z,1.00
2022-08-07T05:45:04.540Z,1.17
2022-08-07T05:47:38.608Z,1.17
2022-08-07T05:50:25.041Z,1.30
2022-08-07T05:52:55.303Z,1.20
2022-08-07T05:55:22.863Z,1.20
2022-08-07T05:57:50.462Z,1.02
2022-08-07T06:00:18.242Z,0.80
2022-08-07T06:02:51.921Z,0.90
2022-08-07T06:05:28.576Z,1.10
2022-08-07T06:08:30.942Z,1.10
2022-08-07T06:10:59.494Z,1.02
2022-08-07T06:14:10.484Z,1.23
2022-08-07T06:16:20.142Z,0.95
2022-08-07T06:18:51.899Z,1.00
2022-08-07T06:22:12.506Z,1.20
2022-08-07T06:24:46.256Z,1.17
2022-08-07T06:27:03.903Z,1.30
2022-08-07T06:33:04.232Z,1.02
2022-08-07T06:35:47.900Z,1.30
2022-08-07T06:38:28.398Z,1.05
2022-08-07T06:40:59.092Z,1.10
2022-08-07T06:43:26.857Z,1.13
2022-08-07T06:46:11.550Z,1.40
2022-08-07T06:48:41.873Z,0.93
2022-08-07T06:51:14.181Z,1.20
2022-08-07T06:55:29.694Z,1.20
2022-08-07T06:56:49.799Z,1.00
2022-08-07T07:00:13.246Z,1.05
2022-08-07T07:02:13.281Z,1.00
2022-08-07T07:05:01.599Z,1.10
2022-08-07T07:08:00.050Z,1.25
2022-08-07T07:10:26.989Z,1.05
2022-08-07T07:12:57.411Z,1.02
2022-08-07T07:15:35.752Z,1.25
2022-08-07T07:18:46.943Z,1.08
2022-08-07T07:21:19.692Z,1.40
2022-08-07T07:24:09.307Z,1.00
2022-08-07T07:26:37.234Z,1.00
2022-08-07T07:29:55.964Z,1.10
2022-08-07T07:31:56.638Z,1.05
2022-08-07T07:34:30.914Z,0.80
2022-08-07T07:37:05.387Z,1.02
2022-08-07T07:39:55.369Z,1.17
2022-08-07T07:42:33.172Z,1.10
2022-08-07T07:48:35.812Z,0.73
2022-08-07T07:51:07.449Z,1.10
2022-08-07T07:53:51.824Z,0.90
2022-08-07T07:56:30.335Z,0.73
2022-08-07T07:58:59.759Z,0.70
2022-08-07T08:02:03.464Z,0.80
2022-08-07T08:04:17.109Z,0.80
2022-08-07T08:06:50.889Z,0.80
2022-08-07T08:09:20.651Z,0.85
2022-08-07T08:12:01.693Z,0.60
2022-08-07T08:17:57.669Z,0.60
2022-08-07T08:20:31.916Z,0.65
2022-08-07T08:23:00.784Z,0.60
2022-08-07T08:25:43.008Z,0.70
2022-08-07T08:28:38.331Z,0.55
2022-08-07T08:31:14.731Z,0.90
2022-08-07T08:33:49.649Z,0.70
2022-08-07T08:36:25.747Z,0.80
2022-08-07T08:39:24.169Z,0.68
2022-08-07T08:42:26.788Z,0.80
2022-08-07T08:45:13.329Z,0.60
2022-08-07T08:47:55.961Z,0.70
2022-08-07T08:50:40.202Z,0.70
2022-08-07T08:53:26.229Z,0.60
2022-08-07T08:55:59.354Z,0.80
2022-08-07T09:01:49.345Z,0.60
2022-08-07T09:04:46.047Z,0.80
2022-08-07T09:07:26.297Z,0.77
2022-08-07T09:09:57.210Z,0.70
2022-08-07T09:12:37.468Z,0.60
2022-08-07T09:16:24.886Z,0.70
2022-08-07T09:18:23.540Z,0.68
2022-08-07T09:21:00.727Z,0.95
2022-08-07T09:24:31.221Z,0.90
2022-08-07T09:26:37.311Z,0.70
2022-08-07T09:32:41.654Z,0.60
2022-08-07T09:36:03.238Z,0.80
2022-08-07T09:38:14.919Z,0.68
2022-08-07T09:40:54.792Z,1.35
2022-08-07T09:44:05.525Z,0.95
2022-08-07T09:47:50.934Z,0.75
2022-08-07T09:50:18.962Z,0.65
2022-08-07T09:52:51.582Z,0.63
2022-08-07T09:56:03.274Z,0.70
2022-08-07T09:58:58.384Z,0.70
2022-08-07T10:08:12.941Z,0.85
2022-08-07T10:11:17.101Z,0.82
2022-08-07T10:13:54.961Z,0.70
2022-08-07T10:16:37.323Z,0.65
2022-08-07T10:19:11.542Z,0.65
2022-08-07T10:22:15.785Z,0.73
2022-08-07T10:24:43.749Z,0.63
2022-08-07T10:27:15.663Z,0.65
2022-08-07T10:29:59.820Z,0.80
2022-08-07T10:32:52.898Z,0.73
2022-08-07T10:35:55.700Z,0.80
2022-08-07T10:38:42.106Z,0.68
2022-08-07T10:41:54.665Z,0.65
2022-08-07T10:47:51.547Z,0.70
2022-08-07T10:50:27.338Z,0.68
2022-08-07T10:52:54.577Z,1.05
2022-08-07T10:55:41.568Z,0.70
2022-08-07T10:58:36.471Z,0.80
2022-08-07T11:01:22.360Z,0.73
2022-08-07T11:04:05.465Z,0.80
2022-08-07T11:06:51.697Z,0.70
2022-08-07T11:10:07.174Z,0.65
2022-08-07T11:12:19.140Z,0.85
2022-08-07T11:15:02.649Z,0.80
2022-08-07T11:17:43.512Z,0.60
2022-08-07T11:20:25.020Z,0.88
2022-08-07T11:23:01.516Z,1.00
2022-08-07T11:25:30.946Z,0.85
2022-08-07T11:28:09.044Z,0.70
2022-08-07T11:31:02.629Z,0.80
2022-08-07T11:33:53.526Z,0.80
2022-08-07T11:36:30.569Z,0.80
2022-08-07T11:39:14.579Z,0.80
2022-08-07T11:42:01.955Z,0.45
2022-08-07T11:44:36.040Z,0.80
2022-08-07T11:47:26.165Z,0.85
2022-08-07T11:50:32.991Z,0.50
2022-08-07T11:53:12.648Z,0.90
2022-08-07T11:56:26.136Z,0.60
2022-08-07T11:58:45.843Z,0.80
2022-08-07T12:01:26.191Z,0.70
2022-08-07T12:04:47.226Z,0.68
2022-08-07T12:07:27.617Z,0.57
2022-08-07T12:10:27.607Z,0.63
2022-08-07T12:12:59.674Z,0.70
2022-08-07T12:15:46.564Z,0.90
2022-08-07T12:18:29.933Z,0.80
2022-08-07T12:21:02.030Z,0.70
2022-08-07T12:24:07.634Z,0.70
2022-08-07T12:26:49.313Z,0.40
2022-08-07T12:29:38.057Z,0.60
2022-08-07T12:32:25.316Z,0.60
2022-08-07T12:34:56.053Z,0.60
2022-08-07T12:37:28.131Z,0.83
2022-08-07T12:40:30.042Z,1.10
2022-08-07T12:43:01.739Z,0.80
2022-08-07T12:45:36.561Z,1.33
2022-08-07T12:48:28.271Z,0.60
2022-08-07T12:51:17.677Z,0.70
2022-08-07T12:56:35.810Z,0.52
2022-08-07T12:59:04.827Z,0.65
2022-08-07T13:01:45.011Z,0.60
2022-08-07T13:04:31.696Z,0.90
2022-08-07T13:07:08.092Z,0.60
2022-08-07T13:10:19.600Z,0.60
2022-08-07T13:12:51.897Z,0.52
2022-08-07T13:15:23.493Z,1.00
2022-08-07T13:18:02.858Z,0.73
2022-08-07T13:24:00.856Z,0.65
2022-08-07T13:26:34.481Z,0.90
2022-08-07T13:29:01.830Z,0.75
2022-08-07T13:31:32.160Z,0.52
2022-08-07T13:34:33.179Z,0.82
2022-08-07T13:36:55.271Z,0.60
2022-08-07T13:40:33.097Z,0.57
2022-08-07T13:42:19.252Z,0.70
2022-08-07T13:45:20.960Z,0.70
2022-08-07T13:48:05.335Z,0.77
2022-08-07T13:50:44.999Z,0.75
2022-08-07T13:53:26.415Z,0.70
2022-08-07T13:56:05.223Z,0.60
2022-08-07T14:05:22.496Z,0.70
2022-08-07T14:10:42.439Z,0.70
2022-08-07T14:13:16.649Z,0.90
2022-08-07T14:15:56.834Z,0.63
2022-08-07T14:18:30.909Z,0.70
2022-08-07T14:21:08.468Z,0.60
2022-08-07T14:24:00.317Z,0.70
2022-08-07T14:26:37.904Z,0.70
2022-08-07T14:30:04.838Z,0.60
2022-08-07T14:31:59.357Z,0.70
2022-08-07T14:34:30.856Z,0.75
2022-08-07T14:37:03.411Z,0.80
2022-08-07T14:40:17.257Z,0.65
2022-08-07T14:43:00.966Z,0.75
2022-08-07T14:45:46.842Z,1.05
2022-08-07T14:48:19.896Z,0.60
2022-08-07T14:50:50.985Z,0.57
2022-08-07T14:54:08.749Z,0.70
2022-08-07T14:56:13.129Z,0.73
2022-08-07T14:58:43.815Z,0.73
2022-08-07T15:01:21.802Z,0.68
2022-08-07T15:03:52.225Z,0.80
2022-08-07T15:06:22.983Z,0.80
2022-08-07T15:11:53.706Z,0.70
2022-08-07T15:14:16.309Z,2.10
2022-08-07T15:16:55.139Z,0.60
2022-08-07T15:22:31.325Z,0.50
2022-08-07T15:25:18.170Z,0.70
2022-08-07T15:28:02.490Z,0.63
2022-08-07T15:30:35.849Z,0.57
2022-08-07T15:33:33.559Z,0.98
2022-08-07T15:36:09.686Z,0.80
2022-08-07T15:42:45.296Z,0.70
2022-08-07T15:44:24.886Z,0.75
2022-08-07T15:52:40.097Z,0.70
2022-08-07T15:55:12.144Z,0.90
2022-08-07T15:57:48.544Z,0.68
2022-08-07T16:00:32.063Z,0.50
2022-08-07T16:03:06.903Z,0.70
2022-08-07T16:05:49.921Z,0.60
2022-08-07T16:08:30.695Z,0.70
2022-08-07T16:11:26.761Z,0.70
2022-08-07T16:13:58.721Z,0.70
2022-08-07T16:16:48.784Z,0.70
2022-08-07T16:19:15.028Z,0.55
2022-08-07T16:22:03.552Z,0.68
2022-08-07T16:25:10.562Z,0.60
2022-08-07T16:27:57.332Z,0.70
2022-08-07T16:30:29.441Z,0.60
2022-08-07T16:34:02.135Z,0.70
2022-08-07T16:36:03.157Z,0.60
2022-08-07T16:39:01.025Z,0.70
2022-08-07T16:41:41.440Z,0.73
2022-08-07T16:44:40.313Z,0.70
2022-08-07T16:47:45.390Z,0.60
2022-08-07T16:50:39.166Z,0.60
2022-08-07T16:54:01.382Z,0.70
2022-08-07T16:56:37.454Z,0.70
2022-08-07T16:59:17.670Z,0.80
2022-08-07T17:01:51.446Z,0.80
2022-08-07T17:04:24.630Z,0.70
2022-08-07T17:07:10.991Z,0.60
2022-08-07T17:10:06.385Z,0.85
2022-08-07T17:12:43.858Z,0.73
2022-08-07T17:15:15.601Z,0.70
2022-08-07T17:21:19.156Z,0.80
2022-08-07T17:23:50.366Z,0.82
2022-08-07T17:26:30.638Z,0.63
2022-08-07T17:29:08.623Z,0.60
2022-08-07T17:32:12.560Z,0.55
2022-08-07T17:35:49.720Z,0.68
2022-08-07T17:38:06.001Z,0.60
2022-08-07T17:40:54.034Z,0.73
2022-08-07T17:44:02.261Z,0.82
2022-08-07T17:49:08.911Z,0.70
2022-08-07T17:51:59.835Z,0.60
2022-08-07T17:54:40.204Z,0.57
2022-08-07T17:57:58.596Z,0.50
2022-08-07T18:00:33.654Z,0.60
2022-08-07T18:03:25.448Z,0.50
2022-08-07T18:06:01.360Z,0.73
2022-08-07T18:09:00.778Z,0.70
2022-08-07T18:12:18.150Z,1.63
2022-08-07T18:14:59.126Z,0.80
2022-08-07T18:18:46.011Z,0.80
2022-08-07T18:21:10.311Z,0.82
2022-08-07T18:23:43.589Z,0.85
2022-08-07T18:26:15.298Z,0.68
2022-08-07T18:31:40.641Z,1.00
2022-08-07T18:34:37.760Z,0.80
2022-08-07T18:37:09.569Z,1.00
2022-08-07T18:40:07.412Z,0.90
2022-08-07T18:42:43.292Z,1.27
2022-08-07T18:45:44.819Z,1.45
2022-08-07T18:50:05.573Z,1.20
2022-08-07T18:52:37.532Z,1.20
2022-08-07T18:54:42.204Z,1.45
2022-08-07T18:57:58.473Z,1.08
2022-08-07T19:00:35.621Z,1.00
2022-08-07T19:03:12.172Z,1.17
2022-08-07T19:06:06.262Z,0.95
2022-08-07T19:08:38.004Z,0.70
2022-08-07T19:13:52.571Z,1.10
2022-08-07T19:17:01.003Z,0.90
2022-08-07T19:19:36.671Z,0.95
2022-08-07T19:22:05.084Z,0.98
2022-08-07T19:24:36.081Z,1.00
2022-08-07T19:28:57.777Z,0.85
2022-08-07T19:31:03.997Z,0.70
2022-08-07T19:32:46.064Z,0.93
2022-08-07T19:35:16.688Z,0.98
2022-08-07T19:37:57.211Z,1.25
2022-08-07T19:40:31.022Z,1.08
2022-08-07T19:43:13.155Z,1.08
2022-08-07T19:46:14.791Z,0.82
2022-08-07T19:48:53.514Z,1.10
2022-08-07T19:51:24.220Z,1.10
2022-08-07T19:54:34.342Z,1.48
2022-08-07T19:58:00.892Z,1.35
2022-08-07T19:59:52.945Z,1.15
2022-08-07T20:02:32.005Z,1.38
2022-08-07T20:05:03.172Z,1.52
2022-08-07T20:07:45.943Z,1.40
2022-08-07T20:10:37.793Z,1.85
2022-08-07T20:13:06.375Z,1.33
2022-08-07T20:15:37.069Z,1.30
2022-08-07T20:18:06.242Z,1.10
2022-08-07T20:20:42.731Z,1.35
2022-08-07T20:23:23.209Z,1.30
2022-08-07T20:26:03.834Z,1.30
2022-08-07T20:28:39.086Z,1.42
2022-08-07T20:31:10.479Z,1.30
2022-08-07T20:33:51.736Z,1.20
2022-08-07T20:36:26.181Z,1.40
2022-08-07T20:39:00.436Z,1.48
2022-08-07T20:41:38.165Z,1.30
2022-08-07T20:44:11.118Z,1.30
2022-08-07T20:46:44.086Z,1.45
2022-08-07T20:49:59.540Z,1.42
2022-08-07T20:52:30.064Z,1.38
2022-08-07T20:55:09.731Z,1.40
2022-08-07T20:57:47.512Z,1.40
2022-08-07T21:00:15.694Z,1.50
2022-08-07T21:05:54.669Z,1.40
2022-08-07T21:08:37.653Z,1.60
2022-08-07T21:11:11.917Z,1.60
2022-08-07T21:13:57.179Z,1.55
2022-08-07T21:16:33.386Z,1.60
2022-08-07T21:19:02.275Z,1.48
2022-08-07T21:21:30.889Z,1.65
2022-08-07T21:24:02.930Z,1.58
2022-08-07T21:29:47.101Z,1.58
2022-08-07T21:32:46.870Z,1.40
2022-08-07T21:35:34.847Z,1.60
2022-08-07T21:38:15.777Z,1.48
2022-08-07T21:40:45.433Z,1.77
2022-08-07T21:43:22.964Z,1.55
2022-08-07T21:46:24.569Z,1.45
2022-08-07T21:49:14.549Z,1.48
2022-08-07T21:51:54.538Z,1.60
2022-08-07T21:54:33.908Z,1.60
2022-08-07T21:57:39.602Z,1.30
2022-08-07T22:00:23.198Z,1.30
2022-08-07T22:02:52.940Z,1.55
2022-08-07T22:05:45.862Z,1.23
2022-08-07T22:08:10.865Z,1.33
2022-08-07T22:10:42.311Z,1.52
2022-08-07T22:13:13.713Z,1.40
2022-08-07T22:16:42.409Z,1.77
2022-08-07T22:18:44.484Z,1.80
2022-08-07T22:21:20.352Z,1.40
2022-08-07T22:23:57.217Z,1.65
2022-08-07T22:26:30.812Z,1.60
2022-08-07T22:28:58.108Z,1.50
2022-08-07T22:31:59.545Z,1.67
2022-08-07T22:34:29.187Z,1.77
2022-08-07T22:37:05.653Z,1.60
2022-08-07T22:39:53.165Z,1.50
2022-08-07T22:42:26.149Z,1.40
2022-08-07T22:44:59.972Z,1.40
2022-08-07T22:47:39.001Z,1.90
2022-08-07T22:50:33.727Z,1.50
2022-08-07T22:53:15.214Z,1.70
2022-08-07T22:55:46.465Z,2.08
2022-08-07T22:58:19.701Z,1.67
2022-08-07T23:00:49.925Z,1.70
2022-08-07T23:03:58.151Z,1.73
2022-08-07T23:06:35.882Z,1.92
2022-08-07T23:10:04.287Z,1.77
2022-08-07T23:12:32.663Z,1.50
2022-08-07T23:16:04.437Z,1.55
2022-08-07T23:18:23.390Z,1.47
2022-08-07T23:20:53.785Z,1.67
2022-08-07T23:24:04.471Z,1.70
2022-08-07T23:26:23.342Z,1.90
2022-08-07T23:29:42.867Z,2.10
2022-08-07T23:34:21.201Z,1.88
2022-08-07T23:34:51.388Z,1.70
2022-08-07T23:37:22.559Z,2.05
2022-08-07T23:40:10.291Z,1.60
2022-08-07T23:42:43.768Z,1.67
2022-08-07T23:45:33.421Z,1.90
2022-08-07T23:48:22.718Z,1.60
2022-08-07T23:52:58.557Z,2.65
2022-08-07T23:54:35.897Z,1.88
2022-08-07T23:57:12.242Z,2.20
